createdAt,value
2022-12-22T00:00:36.189Z,4.10
2022-12-22T00:05:55.505Z,3.92
2022-12-22T00:11:14.526Z,3.84
2022-12-22T00:16:33.342Z,3.76
2022-12-22T00:21:52.668Z,3.65
2022-12-22T00:27:10.749Z,3.52
2022-12-22T00:32:32.757Z,3.44
2022-12-22T00:37:54.441Z,3.47
2022-12-22T00:43:12.650Z,3.54
2022-12-22T00:48:40.735Z,3.56
2022-12-22T00:54:00.282Z,3.58
2022-12-22T00:59:19.408Z,3.54
2022-12-22T01:04:37.859Z,3.51
2022-12-22T01:09:57.211Z,3.57
2022-12-22T01:15:15.611Z,3.68
2022-12-22T01:20:34.267Z,3.75
2022-12-22T01:25:53.856Z,3.73
2022-12-22T01:31:11.991Z,3.83
2022-12-22T01:36:30.335Z,3.77
2022-12-22T01:41:49.924Z,3.75
2022-12-22T01:47:08.044Z,3.82
2022-12-22T01:52:27.140Z,4.01
2022-12-22T01:57:48.176Z,4.14
2022-12-22T02:03:07.689Z,4.16
2022-12-22T02:08:35.984Z,4.31
2022-12-22T02:14:03.517Z,4.26
2022-12-22T02:19:33.400Z,4.24
2022-12-22T02:24:57.920Z,4.25
2022-12-22T02:30:21.422Z,4.28
2022-12-22T02:35:39.903Z,4.29
2022-12-22T02:41:08.442Z,4.24
2022-12-22T02:46:36.633Z,4.30
2022-12-22T02:52:00.331Z,4.27
2022-12-22T02:57:21.773Z,4.10
2022-12-22T03:02:41.316Z,4.22
2022-12-22T03:08:04.462Z,4.17
2022-12-22T03:13:26.395Z,4.25
2022-12-22T03:18:45.827Z,4.25
2022-12-22T03:24:04.405Z,4.23
2022-12-22T03:29:05.044Z,4.20
2022-12-22T03:34:07.096Z,4.23
2022-12-22T03:39:08.011Z,4.26
2022-12-22T03:44:26.229Z,4.30
2022-12-22T03:49:28.277Z,4.31
2022-12-22T03:54:28.937Z,4.35
2022-12-22T03:59:29.583Z,4.42
2022-12-22T04:04:31.565Z,4.43
2022-12-22T04:09:32.261Z,4.45
2022-12-22T04:14:34.519Z,4.48
2022-12-22T04:19:36.903Z,4.56
2022-12-22T04:24:37.559Z,4.59
2022-12-22T04:29:38.184Z,4.57
2022-12-22T04:34:40.152Z,4.58
2022-12-22T04:39:40.800Z,4.54
2022-12-22T04:44:41.420Z,4.64
2022-12-22T04:49:43.570Z,4.56
2022-12-22T04:54:44.227Z,4.61
2022-12-22T04:59:44.876Z,4.61
2022-12-22T05:04:46.868Z,4.61
2022-12-22T05:09:47.519Z,4.59
2022-12-22T05:14:48.165Z,4.69
2022-12-22T05:19:50.169Z,4.61
2022-12-22T05:24:50.873Z,4.65
2022-12-22T05:29:51.537Z,4.72
2022-12-22T05:34:53.536Z,4.66
2022-12-22T05:39:54.202Z,4.70
2022-12-22T05:44:54.852Z,4.72
2022-12-22T05:49:56.840Z,4.62
2022-12-22T05:54:57.490Z,4.69
2022-12-22T05:59:58.128Z,4.61
2022-12-22T06:05:00.121Z,4.63
2022-12-22T06:10:02.824Z,4.64
2022-12-22T06:15:10.142Z,4.72
2022-12-22T06:20:13.457Z,4.79
2022-12-22T06:25:18.734Z,4.80
2022-12-22T06:30:19.883Z,4.70
2022-12-22T06:35:22.004Z,4.71
2022-12-22T06:40:22.800Z,4.73
2022-12-22T06:45:23.510Z,4.79
2022-12-22T06:50:25.567Z,4.74
2022-12-22T06:55:26.300Z,4.70
2022-12-22T07:00:27.065Z,4.78
2022-12-22T07:05:30.482Z,4.80
2022-12-22T07:10:49.016Z,4.77
2022-12-22T07:15:59.227Z,4.86
2022-12-22T07:21:04.065Z,4.83
2022-12-22T07:26:06.103Z,4.92
2022-12-22T07:31:07.484Z,4.99
2022-12-22T07:36:13.015Z,5.06
2022-12-22T07:41:33.350Z,5.22
2022-12-22T07:46:36.551Z,5.34
2022-12-22T07:51:40.835Z,5.45
2022-12-22T07:56:42.673Z,5.54
2022-12-22T08:01:43.500Z,5.64
2022-12-22T08:06:45.972Z,5.65
2022-12-22T08:11:46.642Z,5.66
2022-12-22T08:16:47.334Z,5.87
2022-12-22T08:21:53.001Z,6.05
2022-12-22T08:26:58.585Z,6.32
2022-12-22T08:31:59.496Z,6.50
2022-12-22T08:37:03.989Z,6.66
2022-12-22T08:42:06.621Z,6.77
2022-12-22T08:47:12.987Z,6.84
2022-12-22T08:52:19.054Z,7.19
2022-12-22T08:57:20.063Z,7.43
2022-12-22T09:02:20.854Z,7.67
2022-12-22T09:07:22.930Z,7.80
2022-12-22T09:12:23.589Z,7.89
2022-12-22T09:17:24.345Z,8.01
2022-12-22T09:22:28.643Z,8.00
2022-12-22T09:27:31.157Z,8.17
2022-12-22T09:32:31.900Z,8.26
2022-12-22T09:37:33.882Z,8.20
2022-12-22T09:42:36.378Z,8.38
2022-12-22T09:47:40.277Z,8.58
2022-12-22T09:52:47.467Z,8.74
2022-12-22T09:57:48.745Z,8.70
2022-12-22T10:03:00.906Z,8.63
2022-12-22T10:08:04.060Z,8.64
2022-12-22T10:13:06.157Z,8.74
2022-12-22T10:18:12.063Z,8.69
2022-12-22T10:23:19.405Z,8.80
2022-12-22T10:28:23.632Z,8.82
2022-12-22T10:33:24.273Z,9.16
2022-12-22T10:38:29.454Z,8.93
2022-12-22T10:43:32.711Z,8.81
2022-12-22T10:48:36.759Z,8.63
2022-12-22T10:53:47.968Z,8.48
2022-12-22T10:58:50.952Z,8.31
2022-12-22T11:03:51.880Z,8.27
2022-12-22T11:08:58.165Z,8.31
2022-12-22T11:14:21.085Z,8.41
2022-12-22T11:19:46.800Z,8.54
2022-12-22T11:25:01.381Z,8.69
2022-12-22T11:30:08.828Z,8.76
2022-12-22T11:35:15.260Z,8.83
2022-12-22T11:40:29.185Z,9.03
2022-12-22T11:45:44.357Z,9.17
2022-12-22T11:51:00.180Z,9.23
2022-12-22T11:56:22.732Z,9.14
2022-12-22T12:01:39.608Z,9.03
2022-12-22T12:07:00.048Z,8.97
2022-12-22T12:12:10.894Z,8.94
2022-12-22T12:17:26.441Z,8.95
2022-12-22T12:22:40.918Z,8.93
2022-12-22T12:27:55.202Z,8.92
2022-12-22T12:33:01.351Z,9.00
2022-12-22T12:38:06.895Z,9.04
2022-12-22T12:43:16.243Z,9.29
2022-12-22T12:48:40.360Z,9.62
2022-12-22T12:54:18.692Z,10.36
2022-12-22T12:59:47.138Z,11.38
2022-12-22T13:05:33.326Z,11.84
2022-12-22T13:10:35.577Z,11.83
2022-12-22T13:15:40.192Z,11.89
2022-12-22T13:20:41.057Z,11.95
2022-12-22T13:25:46.225Z,12.02
2022-12-22T13:30:51.337Z,11.98
2022-12-22T13:35:58.534Z,12.02
2022-12-22T13:41:01.899Z,11.86
2022-12-22T13:46:04.404Z,11.91
2022-12-22T13:51:09.069Z,11.93
2022-12-22T13:56:15.020Z,11.85
2022-12-22T14:01:20.239Z,11.76
2022-12-22T14:06:26.279Z,11.73
2022-12-22T14:11:27.025Z,11.71
2022-12-22T14:16:29.102Z,11.59
2022-12-22T14:21:29.989Z,11.58
2022-12-22T14:26:31.266Z,11.53
2022-12-22T14:31:33.365Z,11.45
2022-12-22T14:36:40.842Z,11.42
2022-12-22T14:41:51.633Z,11.44
2022-12-22T14:47:17.465Z,11.29
2022-12-22T14:52:27.760Z,11.21
2022-12-22T14:57:36.339Z,11.39
2022-12-22T15:02:50.871Z,11.48
2022-12-22T15:08:05.301Z,11.65
2022-12-22T15:13:13.118Z,11.68
2022-12-22T15:18:16.679Z,11.58
2022-12-22T15:23:17.651Z,11.59
2022-12-22T15:28:18.335Z,11.41
2022-12-22T15:33:21.016Z,11.12
2022-12-22T15:38:23.871Z,10.76
2022-12-22T15:48:47.484Z,10.30
2022-12-22T15:53:48.239Z,10.06
2022-12-22T15:58:49.943Z,9.79
2022-12-22T16:03:52.129Z,9.67
2022-12-22T16:08:54.620Z,9.54
2022-12-22T16:13:55.403Z,9.45
2022-12-22T16:18:57.499Z,9.43
2022-12-22T16:23:58.710Z,9.37
2022-12-22T16:29:00.009Z,9.34
2022-12-22T16:34:02.005Z,9.27
2022-12-22T16:39:02.718Z,9.22
2022-12-22T16:44:08.135Z,9.14
2022-12-22T16:49:10.459Z,9.12
2022-12-22T16:54:14.755Z,9.02
2022-12-22T16:59:16.729Z,9.04
2022-12-22T17:04:22.797Z,9.02
2022-12-22T17:09:29.471Z,8.94
2022-12-22T17:14:32.956Z,8.89
2022-12-22T17:19:34.954Z,8.85
2022-12-22T17:24:35.688Z,8.78
2022-12-22T17:29:37.380Z,8.81
2022-12-22T17:34:39.452Z,8.75
2022-12-22T17:39:40.455Z,8.78
2022-12-22T17:44:41.154Z,8.75
2022-12-22T17:49:44.564Z,8.71
2022-12-22T17:54:46.310Z,8.73
2022-12-22T17:59:47.323Z,8.72
2022-12-22T18:04:50.398Z,8.75
2022-12-22T18:09:53.104Z,8.73
2022-12-22T18:14:54.063Z,8.67
2022-12-22T18:19:56.448Z,8.72
2022-12-22T18:24:58.444Z,8.69
2022-12-22T18:30:00.095Z,8.66
2022-12-22T18:35:02.250Z,8.59
2022-12-22T18:40:03.202Z,8.56
2022-12-22T18:45:04.087Z,8.60
2022-12-22T18:50:07.465Z,8.56
2022-12-22T18:55:15.803Z,8.29
2022-12-22T19:00:29.205Z,8.09
2022-12-22T19:05:34.364Z,7.89
2022-12-22T19:10:38.295Z,7.93
2022-12-22T19:15:39.681Z,7.98
2022-12-22T19:20:41.855Z,7.84
2022-12-22T19:25:45.617Z,7.62
2022-12-22T19:30:46.329Z,7.51
2022-12-22T19:35:48.393Z,7.46
2022-12-22T19:40:51.746Z,7.51
2022-12-22T19:45:54.065Z,7.44
2022-12-22T19:50:56.418Z,7.39
2022-12-22T19:55:58.289Z,7.47
2022-12-22T20:00:59.604Z,7.42
2022-12-22T20:06:01.648Z,7.36
2022-12-22T20:11:02.671Z,7.29
2022-12-22T20:16:04.969Z,7.20
2022-12-22T20:21:11.485Z,7.19
2022-12-22T20:26:17.293Z,7.12
2022-12-22T20:31:20.489Z,7.07
2022-12-22T20:36:26.332Z,7.11
2022-12-22T20:41:28.143Z,7.13
2022-12-22T20:46:30.319Z,7.16
2022-12-22T20:51:34.578Z,7.21
2022-12-22T20:56:39.312Z,7.20
2022-12-22T21:01:40.085Z,7.24
2022-12-22T21:06:46.862Z,7.23
2022-12-22T21:11:47.901Z,7.23
2022-12-22T21:16:49.798Z,7.26
2022-12-22T21:21:51.868Z,7.25
2022-12-22T21:26:54.341Z,7.25
2022-12-22T21:31:55.296Z,7.16
2022-12-22T21:37:02.412Z,6.95
2022-12-22T21:42:04.499Z,6.81
2022-12-22T21:47:05.687Z,6.94
2022-12-22T21:52:07.826Z,6.94
2022-12-22T21:57:13.825Z,7.00
2022-12-22T22:02:17.262Z,7.00
2022-12-22T22:07:19.370Z,7.01
2022-12-22T22:12:37.156Z,6.97
2022-12-22T22:17:38.333Z,6.97
2022-12-22T22:22:40.318Z,6.97
2022-12-22T22:27:47.510Z,6.87
2022-12-22T22:32:49.462Z,6.77
2022-12-22T22:37:51.833Z,6.66
2022-12-22T22:42:52.555Z,6.66
2022-12-22T22:47:54.103Z,6.59
2022-12-22T22:52:56.126Z,6.61
2022-12-22T22:57:56.761Z,6.64
2022-12-22T23:02:57.779Z,6.73
2022-12-22T23:08:01.393Z,6.68
2022-12-22T23:13:02.045Z,6.84
2022-12-22T23:18:02.715Z,6.78
2022-12-22T23:23:04.699Z,6.74
2022-12-22T23:28:05.815Z,6.75
2022-12-22T23:33:06.495Z,6.81
2022-12-22T23:38:10.595Z,6.61
2022-12-22T23:43:12.744Z,6.53
2022-12-22T23:48:13.420Z,6.52
2022-12-22T23:53:15.642Z,6.49
2022-12-22T23:58:17.633Z,6.60
